sensor_id;sensor_type;location;lat;lon;timestamp;pressure;altitude;pressure_sealevel;temperature;humidity
15487;BME280;7845;53.698;10.078;2023-07-13T00:00:23;100892.13;;;22.43;100.00
15487;BME280;7845;53.698;10.078;2023-07-13T00:02:50;100884.38;;;22.38;100.00
15487;BME280;7845;53.698;10.078;2023-07-13T00:05:21;100889.81;;;22.37;100.00
15487;BME280;7845;53.698;10.078;2023-07-13T00:07:48;100888.47;;;22.28;100.00
15487;BME280;7845;53.698;10.078;2023-07-13T00:10:14;100887.13;;;22.21;100.00
15487;BME280;7845;53.698;10.078;2023-07-13T00:12:40;100888.31;;;22.16;100.00
15487;BME280;7845;53.698;10.078;2023-07-13T00:15:17;100881.84;;;22.04;100.00
15487;BME280;7845;53.698;10.078;2023-07-13T00:17:53;100886.69;;;21.96;100.00
15487;BME280;7845;53.698;10.078;2023-07-13T00:20:22;100880.34;;;21.98;100.00
15487;BME280;7845;53.698;10.078;2023-07-13T00:22:52;100880.59;;;21.94;100.00
15487;BME280;7845;53.698;10.078;2023-07-13T00:25:22;100879.50;;;21.98;100.00
15487;BME280;7845;53.698;10.078;2023-07-13T00:27:49;100878.97;;;21.74;100.00
15487;BME280;7845;53.698;10.078;2023-07-13T00:30:15;100878.66;;;21.63;100.00
15487;BME280;7845;53.698;10.078;2023-07-13T00:32:41;100874.81;;;21.51;100.00
15487;BME280;7845;53.698;10.078;2023-07-13T00:35:06;100875.66;;;21.69;100.00
15487;BME280;7845;53.698;10.078;2023-07-13T00:37:32;100875.22;;;21.61;100.00
15487;BME280;7845;53.698;10.078;2023-07-13T00:39:58;100876.09;;;21.62;100.00
15487;BME280;7845;53.698;10.078;2023-07-13T00:42:24;100876.94;;;21.62;100.00
15487;BME280;7845;53.698;10.078;2023-07-13T00:45:07;100884.06;;;21.62;100.00
15487;BME280;7845;53.698;10.078;2023-07-13T00:47:32;100888.66;;;21.58;100.00
15487;BME280;7845;53.698;10.078;2023-07-13T00:49:58;100879.91;;;21.56;100.00
15487;BME280;7845;53.698;10.078;2023-07-13T00:52:25;100876.47;;;21.54;100.00
15487;BME280;7845;53.698;10.078;2023-07-13T00:54:51;100877.25;;;21.56;100.00
15487;BME280;7845;53.698;10.078;2023-07-13T00:57:18;100875.38;;;21.58;100.00
15487;BME280;7845;53.698;10.078;2023-07-13T00:59:50;100878.19;;;21.55;100.00
15487;BME280;7845;53.698;10.078;2023-07-13T01:02:17;100878.75;;;21.62;100.00
15487;BME280;7845;53.698;10.078;2023-07-13T01:04:43;100876.78;;;21.65;100.00
15487;BME280;7845;53.698;10.078;2023-07-13T01:07:10;100882.25;;;21.62;100.00
15487;BME280;7845;53.698;10.078;2023-07-13T01:09:36;100882.09;;;21.48;100.00
15487;BME280;7845;53.698;10.078;2023-07-13T01:12:01;100874.69;;;21.37;100.00
15487;BME280;7845;53.698;10.078;2023-07-13T01:14:27;100885.75;;;21.28;100.00
15487;BME280;7845;53.698;10.078;2023-07-13T01:16:53;100892.25;;;21.23;100.00
15487;BME280;7845;53.698;10.078;2023-07-13T01:19:36;100887.28;;;21.15;100.00
15487;BME280;7845;53.698;10.078;2023-07-13T01:22:07;100887.56;;;21.28;100.00
15487;BME280;7845;53.698;10.078;2023-07-13T01:24:35;100888.25;;;21.31;100.00
15487;BME280;7845;53.698;10.078;2023-07-13T01:27:02;100885.91;;;21.25;100.00
15487;BME280;7845;53.698;10.078;2023-07-13T01:29:27;100877.53;;;21.16;100.00
15487;BME280;7845;53.698;10.078;2023-07-13T01:31:52;100883.88;;;21.13;100.00
15487;BME280;7845;53.698;10.078;2023-07-13T01:34:18;100881.47;;;21.26;100.00
15487;BME280;7845;53.698;10.078;2023-07-13T01:36:43;100889.19;;;21.30;100.00
15487;BME280;7845;53.698;10.078;2023-07-13T01:39:08;100888.56;;;21.25;100.00
15487;BME280;7845;53.698;10.078;2023-07-13T01:41:34;100883.81;;;21.32;100.00
15487;BME280;7845;53.698;10.078;2023-07-13T01:43:59;100889.03;;;21.33;100.00
15487;BME280;7845;53.698;10.078;2023-07-13T01:46:24;100879.38;;;21.32;100.00
15487;BME280;7845;53.698;10.078;2023-07-13T01:48:51;100877.78;;;21.28;100.00
15487;BME280;7845;53.698;10.078;2023-07-13T01:51:18;100882.19;;;21.29;100.00
15487;BME280;7845;53.698;10.078;2023-07-13T01:53:43;100884.75;;;21.31;100.00
15487;BME280;7845;53.698;10.078;2023-07-13T01:56:08;100879.59;;;21.28;100.00
15487;BME280;7845;53.698;10.078;2023-07-13T01:58:34;100879.84;;;21.23;100.00
15487;BME280;7845;53.698;10.078;2023-07-13T02:00:59;100879.84;;;21.23;100.00
15487;BME280;7845;53.698;10.078;2023-07-13T02:03:24;100874.38;;;21.26;100.00
15487;BME280;7845;53.698;10.078;2023-07-13T02:05:49;100868.34;;;21.23;100.00
15487;BME280;7845;53.698;10.078;2023-07-13T02:08:15;100870.03;;;21.24;100.00
15487;BME280;7845;53.698;10.078;2023-07-13T02:10:40;100876.22;;;21.24;100.00
15487;BME280;7845;53.698;10.078;2023-07-13T02:13:06;100878.00;;;21.24;100.00
15487;BME280;7845;53.698;10.078;2023-07-13T02:15:32;100877.03;;;21.26;100.00
15487;BME280;7845;53.698;10.078;2023-07-13T02:17:57;100873.66;;;21.23;100.00
15487;BME280;7845;53.698;10.078;2023-07-13T02:20:23;100873.56;;;21.24;100.00
15487;BME280;7845;53.698;10.078;2023-07-13T02:22:49;100885.91;;;21.25;100.00
15487;BME280;7845;53.698;10.078;2023-07-13T02:25:14;100875.59;;;21.19;100.00
15487;BME280;7845;53.698;10.078;2023-07-13T02:27:39;100883.41;;;21.22;100.00
15487;BME280;7845;53.698;10.078;2023-07-13T02:30:05;100879.41;;;21.14;100.00
15487;BME280;7845;53.698;10.078;2023-07-13T02:32:31;100880.28;;;21.14;100.00
15487;BME280;7845;53.698;10.078;2023-07-13T02:34:57;100882.28;;;21.09;100.00
15487;BME280;7845;53.698;10.078;2023-07-13T02:37:22;100881.28;;;21.12;100.00
15487;BME280;7845;53.698;10.078;2023-07-13T02:39:47;100881.22;;;21.13;100.00
15487;BME280;7845;53.698;10.078;2023-07-13T02:42:13;100872.31;;;21.14;100.00
15487;BME280;7845;53.698;10.078;2023-07-13T02:44:38;100868.84;;;21.12;100.00
15487;BME280;7845;53.698;10.078;2023-07-13T02:47:03;100869.72;;;21.13;100.00
15487;BME280;7845;53.698;10.078;2023-07-13T02:49:29;100872.53;;;21.10;100.00
15487;BME280;7845;53.698;10.078;2023-07-13T02:51:54;100871.59;;;21.11;100.00
15487;BME280;7845;53.698;10.078;2023-07-13T02:54:19;100871.66;;;21.09;100.00
15487;BME280;7845;53.698;10.078;2023-07-13T02:56:44;100876.91;;;21.11;100.00
15487;BME280;7845;53.698;10.078;2023-07-13T02:59:10;100875.19;;;21.10;100.00
15487;BME280;7845;53.698;10.078;2023-07-13T03:01:36;100876.22;;;21.06;100.00
15487;BME280;7845;53.698;10.078;2023-07-13T03:04:01;100877.19;;;21.05;100.00
15487;BME280;7845;53.698;10.078;2023-07-13T03:06:27;100879.91;;;21.03;100.00
15487;BME280;7845;53.698;10.078;2023-07-13T03:08:55;100884.38;;;21.03;100.00
15487;BME280;7845;53.698;10.078;2023-07-13T03:11:21;100877.34;;;21.02;100.00
15487;BME280;7845;53.698;10.078;2023-07-13T03:13:47;100873.03;;;20.99;100.00
15487;BME280;7845;53.698;10.078;2023-07-13T03:16:13;100869.38;;;21.02;100.00
15487;BME280;7845;53.698;10.078;2023-07-13T03:18:41;100864.06;;;21.02;100.00
15487;BME280;7845;53.698;10.078;2023-07-13T03:21:07;100863.97;;;21.03;100.00
15487;BME280;7845;53.698;10.078;2023-07-13T03:23:32;100865.69;;;21.04;100.00
15487;BME280;7845;53.698;10.078;2023-07-13T03:26:08;100873.47;;;21.09;100.00
15487;BME280;7845;53.698;10.078;2023-07-13T03:28:34;100871.31;;;21.17;100.00
15487;BME280;7845;53.698;10.078;2023-07-13T03:31:03;100869.34;;;21.20;100.00
15487;BME280;7845;53.698;10.078;2023-07-13T03:33:30;100858.50;;;21.25;100.00
15487;BME280;7845;53.698;10.078;2023-07-13T03:35:55;100860.22;;;21.26;100.00
15487;BME280;7845;53.698;10.078;2023-07-13T03:38:21;100861.88;;;21.28;100.00
15487;BME280;7845;53.698;10.078;2023-07-13T03:40:46;100861.69;;;21.31;100.00
15487;BME280;7845;53.698;10.078;2023-07-13T03:43:11;100859.06;;;21.31;100.00
15487;BME280;7845;53.698;10.078;2023-07-13T03:45:41;100858.03;;;21.34;100.00
15487;BME280;7845;53.698;10.078;2023-07-13T03:48:06;100866.88;;;21.34;100.00
15487;BME280;7845;53.698;10.078;2023-07-13T03:50:31;100859.66;;;21.36;100.00
15487;BME280;7845;53.698;10.078;2023-07-13T03:53:00;100858.19;;;21.31;100.00
15487;BME280;7845;53.698;10.078;2023-07-13T03:55:25;100853.81;;;21.30;100.00
15487;BME280;7845;53.698;10.078;2023-07-13T04:00:43;100867.88;;;21.32;100.00
15487;BME280;7845;53.698;10.078;2023-07-13T04:03:08;100866.00;;;21.34;100.00
15487;BME280;7845;53.698;10.078;2023-07-13T04:05:34;100870.38;;;21.35;100.00
15487;BME280;7845;53.698;10.078;2023-07-13T04:07:59;100869.69;;;21.31;100.00
15487;BME280;7845;53.698;10.078;2023-07-13T04:10:24;100871.88;;;21.40;100.00
15487;BME280;7845;53.698;10.078;2023-07-13T04:12:50;100872.88;;;21.38;100.00
15487;BME280;7845;53.698;10.078;2023-07-13T04:15:15;100876.63;;;21.51;100.00
15487;BME280;7845;53.698;10.078;2023-07-13T04:17:40;100871.84;;;21.75;100.00
15487;BME280;7845;53.698;10.078;2023-07-13T04:20:06;100874.31;;;21.78;100.00
15487;BME280;7845;53.698;10.078;2023-07-13T04:22:32;100876.75;;;21.82;100.00
15487;BME280;7845;53.698;10.078;2023-07-13T04:24:57;100874.97;;;21.83;100.00
15487;BME280;7845;53.698;10.078;2023-07-13T04:27:22;100878.00;;;21.92;100.00
15487;BME280;7845;53.698;10.078;2023-07-13T04:29:48;100871.03;;;22.07;100.00
15487;BME280;7845;53.698;10.078;2023-07-13T04:32:14;100877.56;;;22.17;100.00
15487;BME280;7845;53.698;10.078;2023-07-13T04:34:40;100871.53;;;22.31;100.00
15487;BME280;7845;53.698;10.078;2023-07-13T04:37:05;100867.03;;;22.31;100.00
15487;BME280;7845;53.698;10.078;2023-07-13T04:39:31;100872.72;;;23.19;100.00
15487;BME280;7845;53.698;10.078;2023-07-13T04:41:58;100880.63;;;25.06;100.00
15487;BME280;7845;53.698;10.078;2023-07-13T04:44:24;100893.25;;;26.46;100.00
15487;BME280;7845;53.698;10.078;2023-07-13T04:46:49;100902.72;;;27.70;100.00
15487;BME280;7845;53.698;10.078;2023-07-13T04:49:15;100898.44;;;28.24;100.00
15487;BME280;7845;53.698;10.078;2023-07-13T04:51:41;100903.53;;;28.94;100.00
15487;BME280;7845;53.698;10.078;2023-07-13T04:54:07;100913.13;;;27.96;100.00
15487;BME280;7845;53.698;10.078;2023-07-13T04:56:34;100923.88;;;27.27;100.00
15487;BME280;7845;53.698;10.078;2023-07-13T04:58:59;100925.59;;;27.39;100.00
15487;BME280;7845;53.698;10.078;2023-07-13T05:01:25;100936.06;;;27.55;100.00
15487;BME280;7845;53.698;10.078;2023-07-13T05:03:51;100930.53;;;28.15;100.00
15487;BME280;7845;53.698;10.078;2023-07-13T05:06:16;100937.19;;;27.63;100.00
15487;BME280;7845;53.698;10.078;2023-07-13T05:08:42;100943.22;;;26.83;100.00
15487;BME280;7845;53.698;10.078;2023-07-13T05:11:07;100948.28;;;27.35;100.00
15487;BME280;7845;53.698;10.078;2023-07-13T05:13:34;100939.31;;;28.17;100.00
15487;BME280;7845;53.698;10.078;2023-07-13T05:16:02;100948.50;;;27.44;100.00
15487;BME280;7845;53.698;10.078;2023-07-13T05:18:32;100943.75;;;26.63;100.00
15487;BME280;7845;53.698;10.078;2023-07-13T05:21:02;100956.06;;;26.02;100.00
15487;BME280;7845;53.698;10.078;2023-07-13T05:23:28;100964.34;;;25.72;100.00
15487;BME280;7845;53.698;10.078;2023-07-13T05:25:54;100968.63;;;25.36;100.00
15487;BME280;7845;53.698;10.078;2023-07-13T05:28:19;100965.09;;;25.21;100.00
15487;BME280;7845;53.698;10.078;2023-07-13T05:30:46;100976.91;;;25.04;100.00
15487;BME280;7845;53.698;10.078;2023-07-13T05:33:12;100965.19;;;24.93;100.00
15487;BME280;7845;53.698;10.078;2023-07-13T05:35:38;100969.56;;;24.79;100.00
15487;BME280;7845;53.698;10.078;2023-07-13T05:38:03;100988.44;;;24.76;100.00
15487;BME280;7845;53.698;10.078;2023-07-13T05:40:28;100973.69;;;24.85;100.00
15487;BME280;7845;53.698;10.078;2023-07-13T05:42:55;100979.34;;;24.81;100.00
15487;BME280;7845;53.698;10.078;2023-07-13T05:45:20;100973.19;;;24.64;100.00
15487;BME280;7845;53.698;10.078;2023-07-13T05:47:45;100974.06;;;24.51;100.00
15487;BME280;7845;53.698;10.078;2023-07-13T05:50:11;100981.78;;;24.55;100.00
15487;BME280;7845;53.698;10.078;2023-07-13T05:52:36;100980.91;;;24.41;100.00
15487;BME280;7845;53.698;10.078;2023-07-13T05:55:03;100983.78;;;24.23;100.00
15487;BME280;7845;53.698;10.078;2023-07-13T05:57:30;100980.66;;;24.31;100.00
15487;BME280;7845;53.698;10.078;2023-07-13T05:59:56;100986.63;;;24.35;100.00
15487;BME280;7845;53.698;10.078;2023-07-13T06:02:23;100984.19;;;24.46;100.00
15487;BME280;7845;53.698;10.078;2023-07-13T06:04:49;100988.66;;;24.45;100.00
15487;BME280;7845;53.698;10.078;2023-07-13T06:07:15;100981.28;;;24.35;100.00
15487;BME280;7845;53.698;10.078;2023-07-13T06:09:41;100993.88;;;24.47;100.00
15487;BME280;7845;53.698;10.078;2023-07-13T06:12:07;100992.75;;;24.37;100.00
15487;BME280;7845;53.698;10.078;2023-07-13T06:14:32;100992.47;;;24.27;100.00
15487;BME280;7845;53.698;10.078;2023-07-13T06:16:58;100995.13;;;24.27;100.00
15487;BME280;7845;53.698;10.078;2023-07-13T06:19:24;100995.88;;;24.29;100.00
15487;BME280;7845;53.698;10.078;2023-07-13T06:21:50;100993.88;;;24.33;100.00
15487;BME280;7845;53.698;10.078;2023-07-13T06:24:17;100998.56;;;24.43;100.00
15487;BME280;7845;53.698;10.078;2023-07-13T06:26:42;100994.06;;;24.44;100.00
15487;BME280;7845;53.698;10.078;2023-07-13T06:29:08;101003.31;;;24.52;100.00
15487;BME280;7845;53.698;10.078;2023-07-13T06:31:33;101001.53;;;24.67;100.00
15487;BME280;7845;53.698;10.078;2023-07-13T06:34:00;100999.44;;;24.86;100.00
15487;BME280;7845;53.698;10.078;2023-07-13T06:36:27;100998.94;;;25.08;100.00
15487;BME280;7845;53.698;10.078;2023-07-13T06:38:52;100996.31;;;24.94;100.00
15487;BME280;7845;53.698;10.078;2023-07-13T06:41:17;100996.44;;;25.19;100.00
15487;BME280;7845;53.698;10.078;2023-07-13T06:43:43;101002.50;;;25.35;100.00
15487;BME280;7845;53.698;10.078;2023-07-13T06:46:08;101003.19;;;25.24;100.00
15487;BME280;7845;53.698;10.078;2023-07-13T06:48:33;101003.75;;;25.29;100.00
15487;BME280;7845;53.698;10.078;2023-07-13T06:50:59;101006.84;;;25.23;100.00
15487;BME280;7845;53.698;10.078;2023-07-13T06:53:24;101000.63;;;25.23;100.00
15487;BME280;7845;53.698;10.078;2023-07-13T06:55:50;101004.63;;;25.57;100.00
15487;BME280;7845;53.698;10.078;2023-07-13T06:58:17;101009.91;;;25.58;100.00
15487;BME280;7845;53.698;10.078;2023-07-13T07:00:43;101007.72;;;25.51;100.00
15487;BME280;7845;53.698;10.078;2023-07-13T07:03:09;101009.06;;;25.44;100.00
15487;BME280;7845;53.698;10.078;2023-07-13T07:05:34;101011.84;;;25.69;100.00
15487;BME280;7845;53.698;10.078;2023-07-13T07:08:00;101005.69;;;25.81;100.00
15487;BME280;7845;53.698;10.078;2023-07-13T07:10:26;101004.47;;;25.72;100.00
15487;BME280;7845;53.698;10.078;2023-07-13T07:12:51;101016.56;;;25.78;100.00
15487;BME280;7845;53.698;10.078;2023-07-13T07:15:18;101010.56;;;25.62;100.00
15487;BME280;7845;53.698;10.078;2023-07-13T07:17:43;101016.91;;;25.73;100.00
15487;BME280;7845;53.698;10.078;2023-07-13T07:20:09;101011.84;;;25.69;100.00
15487;BME280;7845;53.698;10.078;2023-07-13T07:22:35;101011.44;;;25.48;100.00
15487;BME280;7845;53.698;10.078;2023-07-13T07:25:01;101018.84;;;25.71;100.00
15487;BME280;7845;53.698;10.078;2023-07-13T07:27:26;101014.78;;;25.52;100.00
15487;BME280;7845;53.698;10.078;2023-07-13T07:29:51;101018.56;;;25.62;100.00
15487;BME280;7845;53.698;10.078;2023-07-13T07:32:19;101013.53;;;25.57;100.00
15487;BME280;7845;53.698;10.078;2023-07-13T07:34:45;101014.38;;;25.58;100.00
15487;BME280;7845;53.698;10.078;2023-07-13T07:37:12;101019.34;;;25.23;100.00
15487;BME280;7845;53.698;10.078;2023-07-13T07:39:39;101026.56;;;25.35;100.00
15487;BME280;7845;53.698;10.078;2023-07-13T07:42:05;101025.47;;;25.11;100.00
15487;BME280;7845;53.698;10.078;2023-07-13T07:44:32;101024.13;;;24.75;100.00
15487;BME280;7845;53.698;10.078;2023-07-13T07:46:58;101027.50;;;24.93;100.00
15487;BME280;7845;53.698;10.078;2023-07-13T07:49:24;101025.34;;;24.56;100.00
15487;BME280;7845;53.698;10.078;2023-07-13T07:51:51;101021.75;;;24.43;100.00
15487;BME280;7845;53.698;10.078;2023-07-13T07:54:17;101022.78;;;24.68;100.00
15487;BME280;7845;53.698;10.078;2023-07-13T07:56:42;101025.28;;;24.86;100.00
15487;BME280;7845;53.698;10.078;2023-07-13T07:59:10;101019.75;;;25.03;100.00
15487;BME280;7845;53.698;10.078;2023-07-13T08:01:36;101027.09;;;25.54;100.00
15487;BME280;7845;53.698;10.078;2023-07-13T08:04:02;101022.94;;;25.63;100.00
15487;BME280;7845;53.698;10.078;2023-07-13T08:06:27;101019.50;;;25.88;100.00
15487;BME280;7845;53.698;10.078;2023-07-13T08:08:54;101019.31;;;26.03;100.00
15487;BME280;7845;53.698;10.078;2023-07-13T08:11:20;101010.94;;;26.22;100.00
15487;BME280;7845;53.698;10.078;2023-07-13T08:13:47;101007.81;;;25.76;100.00
15487;BME280;7845;53.698;10.078;2023-07-13T08:16:13;101006.09;;;25.48;100.00
15487;BME280;7845;53.698;10.078;2023-07-13T08:18:38;101003.13;;;25.79;100.00
15487;BME280;7845;53.698;10.078;2023-07-13T08:21:05;101007.53;;;25.93;100.00
15487;BME280;7845;53.698;10.078;2023-07-13T08:23:31;101009.28;;;25.67;100.00
15487;BME280;7845;53.698;10.078;2023-07-13T08:26:02;101015.53;;;25.80;100.00
15487;BME280;7845;53.698;10.078;2023-07-13T08:28:29;101014.53;;;25.69;100.00
15487;BME280;7845;53.698;10.078;2023-07-13T08:31:05;101024.16;;;25.98;100.00
15487;BME280;7845;53.698;10.078;2023-07-13T08:33:34;101022.19;;;26.39;100.00
15487;BME280;7845;53.698;10.078;2023-07-13T08:36:01;101017.16;;;26.48;100.00
15487;BME280;7845;53.698;10.078;2023-07-13T08:38:26;101023.81;;;26.55;100.00
15487;BME280;7845;53.698;10.078;2023-07-13T08:40:56;101023.47;;;26.47;100.00
15487;BME280;7845;53.698;10.078;2023-07-13T08:43:33;101028.09;;;26.70;100.00
15487;BME280;7845;53.698;10.078;2023-07-13T08:46:23;101026.59;;;26.28;100.00
15487;BME280;7845;53.698;10.078;2023-07-13T08:48:55;101021.63;;;26.34;100.00
15487;BME280;7845;53.698;10.078;2023-07-13T08:51:40;101023.78;;;25.77;100.00
15487;BME280;7845;53.698;10.078;2023-07-13T08:54:45;101028.69;;;25.57;100.00
15487;BME280;7845;53.698;10.078;2023-07-13T08:57:20;101016.50;;;25.53;100.00
15487;BME280;7845;53.698;10.078;2023-07-13T08:59:47;101026.13;;;25.55;100.00
15487;BME280;7845;53.698;10.078;2023-07-13T09:05:17;101027.91;;;25.28;100.00
15487;BME280;7845;53.698;10.078;2023-07-13T09:08:25;101031.19;;;25.46;100.00
15487;BME280;7845;53.698;10.078;2023-07-13T09:10:46;101024.56;;;26.05;100.00
15487;BME280;7845;53.698;10.078;2023-07-13T09:13:28;101026.25;;;26.45;100.00
15487;BME280;7845;53.698;10.078;2023-07-13T09:15:59;101023.25;;;26.62;100.00
15487;BME280;7845;53.698;10.078;2023-07-13T09:18:33;101014.78;;;26.93;100.00
15487;BME280;7845;53.698;10.078;2023-07-13T09:23:34;101011.88;;;27.33;100.00
15487;BME280;7845;53.698;10.078;2023-07-13T09:26:06;101009.72;;;27.51;100.00
15487;BME280;7845;53.698;10.078;2023-07-13T09:28:42;101012.13;;;27.30;100.00
15487;BME280;7845;53.698;10.078;2023-07-13T09:31:24;101012.44;;;27.25;100.00
15487;BME280;7845;53.698;10.078;2023-07-13T09:33:51;101015.31;;;26.99;100.00
15487;BME280;7845;53.698;10.078;2023-07-13T09:36:29;101022.28;;;26.76;100.00
15487;BME280;7845;53.698;10.078;2023-07-13T09:39:10;101016.81;;;27.03;100.00
15487;BME280;7845;53.698;10.078;2023-07-13T09:41:48;101022.16;;;26.77;100.00
15487;BME280;7845;53.698;10.078;2023-07-13T09:44:18;101014.06;;;27.15;100.00
15487;BME280;7845;53.698;10.078;2023-07-13T09:46:57;101007.88;;;27.15;100.00
15487;BME280;7845;53.698;10.078;2023-07-13T09:49:28;101025.03;;;27.48;100.00
15487;BME280;7845;53.698;10.078;2023-07-13T09:52:03;101021.22;;;26.78;100.00
15487;BME280;7845;53.698;10.078;2023-07-13T09:54:34;101021.22;;;27.27;100.00
15487;BME280;7845;53.698;10.078;2023-07-13T09:57:02;101021.41;;;27.37;100.00
15487;BME280;7845;53.698;10.078;2023-07-13T09:59:34;101020.75;;;27.70;100.00
15487;BME280;7845;53.698;10.078;2023-07-13T10:02:00;101013.53;;;27.94;100.00
15487;BME280;7845;53.698;10.078;2023-07-13T10:04:30;101016.91;;;28.09;98.42
15487;BME280;7845;53.698;10.078;2023-07-13T10:07:07;101011.13;;;28.02;93.95
15487;BME280;7845;53.698;10.078;2023-07-13T10:09:34;101007.69;;;28.24;96.46
15487;BME280;7845;53.698;10.078;2023-07-13T10:12:00;101009.44;;;28.01;92.57
15487;BME280;7845;53.698;10.078;2023-07-13T10:14:28;101006.56;;;28.15;93.28
15487;BME280;7845;53.698;10.078;2023-07-13T10:16:59;101006.41;;;28.06;95.00
15487;BME280;7845;53.698;10.078;2023-07-13T10:19:31;100998.03;;;28.10;94.53
15487;BME280;7845;53.698;10.078;2023-07-13T10:22:25;100996.38;;;27.73;92.94
15487;BME280;7845;53.698;10.078;2023-07-13T10:24:53;100998.16;;;27.96;95.49
15487;BME280;7845;53.698;10.078;2023-07-13T10:27:24;101001.44;;;28.12;94.13
15487;BME280;7845;53.698;10.078;2023-07-13T10:30:17;100983.41;;;28.25;91.51
15487;BME280;7845;53.698;10.078;2023-07-13T10:32:47;100995.56;;;28.64;90.78
15487;BME280;7845;53.698;10.078;2023-07-13T10:35:15;100981.84;;;28.56;91.14
15487;BME280;7845;53.698;10.078;2023-07-13T10:40:16;100987.31;;;28.43;89.59
15487;BME280;7845;53.698;10.078;2023-07-13T10:42:45;100986.28;;;28.11;84.38
15487;BME280;7845;53.698;10.078;2023-07-13T10:45:15;100993.31;;;28.36;86.96
15487;BME280;7845;53.698;10.078;2023-07-13T10:47:43;100984.53;;;28.34;85.02
15487;BME280;7845;53.698;10.078;2023-07-13T10:50:17;100986.25;;;28.57;83.53
15487;BME280;7845;53.698;10.078;2023-07-13T10:52:49;100978.66;;;28.62;80.53
15487;BME280;7845;53.698;10.078;2023-07-13T10:55:35;100997.44;;;28.29;83.05
15487;BME280;7845;53.698;10.078;2023-07-13T10:58:24;100994.50;;;27.86;81.56
15487;BME280;7845;53.698;10.078;2023-07-13T11:01:10;100987.75;;;28.04;83.82
15487;BME280;7845;53.698;10.078;2023-07-13T11:11:44;100999.63;;;28.24;85.79
15487;BME280;7845;53.698;10.078;2023-07-13T11:14:35;100996.00;;;28.36;80.91
15487;BME280;7845;53.698;10.078;2023-07-13T11:22:52;101030.84;;;26.68;96.79
15487;BME280;7845;53.698;10.078;2023-07-13T11:30:38;101039.31;;;26.50;100.00
15487;BME280;7845;53.698;10.078;2023-07-13T11:33:16;101050.03;;;26.50;100.00
15487;BME280;7845;53.698;10.078;2023-07-13T11:36:18;101059.91;;;26.10;99.13
15487;BME280;7845;53.698;10.078;2023-07-13T11:39:23;101059.84;;;25.84;100.00
15487;BME280;7845;53.698;10.078;2023-07-13T11:41:55;101061.97;;;25.79;100.00
15487;BME280;7845;53.698;10.078;2023-07-13T11:44:26;101064.13;;;25.87;100.00
15487;BME280;7845;53.698;10.078;2023-07-13T11:46:56;101058.00;;;26.12;100.00
15487;BME280;7845;53.698;10.078;2023-07-13T11:49:25;101056.34;;;26.74;100.00
15487;BME280;7845;53.698;10.078;2023-07-13T11:51:52;101062.25;;;26.91;99.28
15487;BME280;7845;53.698;10.078;2023-07-13T11:54:41;101068.41;;;26.81;100.00
15487;BME280;7845;53.698;10.078;2023-07-13T11:57:26;101068.47;;;26.92;96.57
15487;BME280;7845;53.698;10.078;2023-07-13T11:59:57;101066.66;;;26.92;99.48
15487;BME280;7845;53.698;10.078;2023-07-13T12:02:32;101070.06;;;27.20;99.59
15487;BME280;7845;53.698;10.078;2023-07-13T12:05:10;101078.31;;;27.17;92.91
15487;BME280;7845;53.698;10.078;2023-07-13T12:07:39;101076.59;;;27.65;92.68
15487;BME280;7845;53.698;10.078;2023-07-13T12:10:21;101099.78;;;27.04;99.44
15487;BME280;7845;53.698;10.078;2023-07-13T12:15:21;101119.19;;;25.77;100.00
15487;BME280;7845;53.698;10.078;2023-07-13T12:17:49;101137.00;;;24.93;100.00
15487;BME280;7845;53.698;10.078;2023-07-13T12:20:27;101181.56;;;23.71;100.00
15487;BME280;7845;53.698;10.078;2023-07-13T12:22:56;101184.13;;;23.24;100.00
15487;BME280;7845;53.698;10.078;2023-07-13T12:25:22;101183.19;;;22.75;100.00
15487;BME280;7845;53.698;10.078;2023-07-13T12:27:49;101175.91;;;22.25;100.00
15487;BME280;7845;53.698;10.078;2023-07-13T12:30:30;101165.19;;;22.10;100.00
15487;BME280;7845;53.698;10.078;2023-07-13T12:33:17;101171.25;;;21.94;100.00
15487;BME280;7845;53.698;10.078;2023-07-13T12:35:47;101166.19;;;22.07;100.00
15487;BME280;7845;53.698;10.078;2023-07-13T12:38:16;101166.69;;;22.32;100.00
15487;BME280;7845;53.698;10.078;2023-07-13T12:40:43;101157.63;;;22.53;100.00
15487;BME280;7845;53.698;10.078;2023-07-13T12:43:13;101153.50;;;22.65;100.00
15487;BME280;7845;53.698;10.078;2023-07-13T12:46:38;101140.63;;;22.56;100.00
15487;BME280;7845;53.698;10.078;2023-07-13T12:48:41;101139.56;;;22.77;100.00
15487;BME280;7845;53.698;10.078;2023-07-13T12:51:11;101139.34;;;23.30;100.00
15487;BME280;7845;53.698;10.078;2023-07-13T12:53:41;101130.22;;;23.83;100.00
15487;BME280;7845;53.698;10.078;2023-07-13T12:56:15;101130.34;;;24.70;100.00
15487;BME280;7845;53.698;10.078;2023-07-13T12:58:43;101125.19;;;25.11;100.00
15487;BME280;7845;53.698;10.078;2023-07-13T13:01:13;101107.50;;;25.65;100.00
15487;BME280;7845;53.698;10.078;2023-07-13T13:03:45;101111.25;;;26.02;100.00
15487;BME280;7845;53.698;10.078;2023-07-13T13:08:53;101132.59;;;25.90;100.00
15487;BME280;7845;53.698;10.078;2023-07-13T13:11:20;101132.91;;;26.38;100.00
15487;BME280;7845;53.698;10.078;2023-07-13T13:13:46;101142.09;;;26.34;100.00
15487;BME280;7845;53.698;10.078;2023-07-13T13:16:32;101145.19;;;26.68;100.00
15487;BME280;7845;53.698;10.078;2023-07-13T13:19:05;101155.28;;;26.11;100.00
15487;BME280;7845;53.698;10.078;2023-07-13T13:21:35;101161.63;;;26.36;100.00
15487;BME280;7845;53.698;10.078;2023-07-13T13:24:01;101157.00;;;26.78;100.00